createdAt,value
2018-10-01T00:02:06.149Z,3.37
2018-10-01T00:04:37.510Z,3.23
2018-10-01T00:09:52.132Z,3.03
2018-10-01T00:12:22.506Z,3.10
2018-10-01T00:14:53.665Z,2.40
2018-10-01T00:17:24.058Z,2.47
2018-10-01T00:19:54.429Z,3.03
2018-10-01T00:22:39.176Z,2.77
2018-10-01T00:25:09.554Z,3.03
2018-10-01T00:27:39.944Z,3.10
2018-10-01T00:30:10.330Z,2.70
2018-10-01T00:32:40.708Z,3.30
2018-10-01T00:35:15.189Z,2.83
2018-10-01T00:37:45.574Z,3.37
2018-10-01T00:40:15.898Z,3.17
2018-10-01T00:42:46.274Z,3.10
2018-10-01T00:45:17.439Z,2.90
2018-10-01T00:47:47.834Z,3.23
2018-10-01T00:50:18.978Z,3.03
2018-10-01T00:52:50.143Z,2.80
2018-10-01T00:55:20.526Z,2.97
2018-10-01T00:57:50.902Z,3.40
2018-10-01T01:00:21.241Z,3.27
2018-10-01T01:02:51.632Z,3.23
2018-10-01T01:05:22.787Z,3.30
2018-10-01T01:07:53.202Z,2.87
2018-10-01T01:10:24.342Z,3.33
2018-10-01T01:12:54.718Z,3.10
2018-10-01T01:15:32.436Z,3.00
2018-10-01T01:18:02.830Z,3.23
2018-10-01T01:20:33.204Z,3.30
2018-10-01T01:23:03.624Z,3.17
2018-10-01T01:25:33.986Z,3.13
2018-10-01T01:28:05.131Z,3.03
2018-10-01T01:30:36.301Z,3.17
2018-10-01T01:33:06.676Z,2.87
2018-10-01T01:35:37.067Z,3.03
2018-10-01T01:38:26.839Z,3.30
2018-10-01T01:40:59.276Z,3.33
2018-10-01T01:43:29.665Z,3.20
2018-10-01T01:46:00.068Z,3.00
2018-10-01T01:48:30.443Z,3.37
2018-10-01T01:51:00.821Z,3.10
2018-10-01T01:53:33.261Z,3.07
2018-10-01T01:56:03.625Z,3.00
2018-10-01T01:58:37.068Z,2.87
2018-10-01T02:01:07.471Z,2.97
2018-10-01T02:03:37.845Z,3.10
2018-10-01T02:06:08.227Z,3.17
2018-10-01T02:08:38.620Z,2.97
2018-10-01T02:11:09.005Z,2.97
2018-10-01T02:13:39.384Z,3.10
2018-10-01T02:16:16.944Z,2.43
2018-10-01T02:18:50.121Z,2.77
2018-10-01T02:21:21.278Z,3.10
2018-10-01T02:23:52.436Z,2.60
2018-10-01T02:26:22.811Z,2.80
2018-10-01T02:28:53.213Z,2.87
2018-10-01T02:31:42.981Z,2.33
2018-10-01T02:34:13.350Z,2.50
2018-10-01T02:36:43.743Z,2.87
2018-10-01T02:39:16.173Z,2.70
2018-10-01T02:41:47.328Z,2.70
2018-10-01T02:44:17.647Z,2.37
2018-10-01T02:46:49.112Z,2.30
2018-10-01T02:49:19.429Z,2.30
2018-10-01T02:51:50.524Z,2.27
2018-10-01T02:54:29.565Z,2.40
2018-10-01T02:56:59.943Z,2.30
2018-10-01T02:59:30.336Z,2.50
2018-10-01T03:02:00.730Z,2.27
2018-10-01T03:04:33.090Z,2.17
2018-10-01T03:07:05.443Z,2.60
2018-10-01T03:09:35.843Z,2.10
2018-10-01T03:12:06.994Z,2.23
2018-10-01T03:14:38.123Z,2.27
2018-10-01T03:17:08.520Z,1.70
2018-10-01T03:19:38.845Z,2.03
2018-10-01T03:22:09.247Z,3.20
2018-10-01T03:24:39.635Z,2.47
2018-10-01T03:27:10.784Z,1.83
2018-10-01T03:29:41.951Z,1.93
2018-10-01T03:32:12.342Z,2.20
2018-10-01T03:34:42.658Z,2.07
2018-10-01T03:37:13.038Z,2.23
2018-10-01T03:39:43.449Z,1.87
2018-10-01T03:42:13.855Z,2.23
2018-10-01T03:44:45.009Z,2.40
2018-10-01T03:47:16.186Z,1.93
2018-10-01T03:49:49.651Z,1.90
2018-10-01T03:52:20.810Z,2.40
2018-10-01T03:54:51.242Z,2.23
2018-10-01T03:57:22.349Z,2.27
2018-10-01T03:59:52.726Z,2.97
2018-10-01T04:02:23.132Z,2.37
2018-10-01T04:04:53.514Z,1.77
2018-10-01T04:07:23.898Z,3.07
2018-10-01T04:09:54.300Z,2.80
2018-10-01T04:12:25.455Z,2.33
2018-10-01T04:14:55.781Z,2.60
2018-10-01T04:20:09.620Z,2.20
2018-10-01T04:22:39.973Z,2.13
2018-10-01T04:25:11.106Z,2.00
2018-10-01T04:27:41.505Z,2.20
2018-10-01T04:30:11.852Z,2.07
2018-10-01T04:32:42.942Z,2.17
2018-10-01T04:35:13.329Z,2.33
2018-10-01T04:37:43.741Z,2.30
2018-10-01T04:40:15.917Z,1.90
2018-10-01T04:42:47.079Z,2.13
2018-10-01T04:45:17.508Z,2.40
2018-10-01T04:47:47.862Z,2.23
2018-10-01T04:50:37.910Z,1.90
2018-10-01T04:53:08.292Z,1.87
2018-10-01T04:55:38.687Z,1.97
2018-10-01T04:58:12.188Z,2.17
2018-10-01T05:00:42.550Z,2.43
2018-10-01T05:03:12.953Z,2.10
2018-10-01T05:05:43.357Z,1.70
2018-10-01T05:08:13.742Z,1.80
2018-10-01T05:10:44.144Z,1.87
2018-10-01T05:13:34.934Z,2.37
2018-10-01T05:16:05.344Z,1.97
2018-10-01T05:18:36.433Z,1.63
2018-10-01T05:21:06.824Z,1.63
2018-10-01T05:23:37.217Z,2.00
2018-10-01T05:26:08.386Z,1.77
2018-10-01T05:28:38.797Z,1.77
2018-10-01T05:31:09.885Z,2.20
2018-10-01T05:33:40.287Z,1.93
2018-10-01T05:36:10.693Z,2.33
2018-10-01T05:38:41.076Z,2.13
2018-10-01T05:41:11.466Z,1.80
2018-10-01T05:43:42.502Z,3.08
2018-10-01T05:46:12.913Z,2.03
2018-10-01T05:48:43.317Z,2.00
2018-10-01T05:51:13.715Z,2.13
2018-10-01T05:53:44.109Z,2.23
2018-10-01T05:56:14.439Z,2.17
2018-10-01T05:58:44.835Z,2.40
2018-10-01T06:01:15.219Z,2.00
2018-10-01T06:03:46.624Z,1.90
2018-10-01T06:06:17.027Z,2.37
2018-10-01T06:08:47.432Z,2.53
2018-10-01T06:11:17.825Z,2.37
2018-10-01T06:13:48.227Z,2.00
2018-10-01T06:16:19.390Z,1.97
2018-10-01T06:18:49.781Z,2.00
2018-10-01T06:21:21.157Z,3.15
2018-10-01T06:23:51.538Z,2.17
2018-10-01T06:26:21.935Z,2.23
2018-10-01T06:28:58.464Z,1.47
2018-10-01T06:31:29.621Z,1.73
2018-10-01T06:34:00.009Z,1.50
2018-10-01T06:36:30.400Z,2.03
2018-10-01T06:39:03.869Z,1.77
2018-10-01T06:41:34.286Z,1.73
2018-10-01T06:44:04.651Z,2.03
2018-10-01T06:46:40.161Z,1.53
2018-10-01T06:49:10.554Z,3.15
2018-10-01T06:51:40.877Z,2.63
2018-10-01T06:54:11.265Z,6.43
2018-10-01T06:56:41.591Z,3.30
2018-10-01T06:59:11.910Z,2.27
2018-10-01T07:01:42.288Z,2.60
2018-10-01T07:04:12.682Z,1.93
2018-10-01T07:06:45.130Z,2.40
2018-10-01T07:09:16.330Z,3.33
2018-10-01T07:11:46.785Z,3.22
2018-10-01T07:14:17.025Z,2.57
2018-10-01T07:16:47.429Z,2.60
2018-10-01T07:19:17.801Z,2.00
2018-10-01T07:21:54.336Z,2.27
2018-10-01T07:24:24.747Z,2.10
2018-10-01T07:26:55.144Z,2.60
2018-10-01T07:29:28.600Z,2.40
2018-10-01T07:31:59.722Z,2.33
2018-10-01T07:34:30.109Z,2.50
2018-10-01T07:37:02.546Z,1.87
2018-10-01T07:39:33.613Z,2.27
2018-10-01T07:42:03.993Z,2.97
2018-10-01T07:44:35.162Z,2.87
2018-10-01T07:47:05.560Z,2.03
2018-10-01T07:49:35.953Z,2.10
2018-10-01T07:52:08.611Z,1.97
2018-10-01T07:54:38.984Z,2.47
2018-10-01T07:57:09.400Z,2.37
2018-10-01T07:59:59.312Z,2.60
2018-10-01T08:02:34.706Z,1.93
2018-10-01T08:05:05.099Z,2.17
2018-10-01T08:07:35.492Z,2.50
2018-10-01T08:10:05.809Z,2.43
2018-10-01T08:12:36.205Z,2.27
2018-10-01T08:15:10.687Z,2.00
2018-10-01T08:17:41.832Z,1.77
2018-10-01T08:20:12.261Z,2.47
2018-10-01T08:22:42.611Z,1.97
2018-10-01T08:25:13.014Z,1.77
2018-10-01T08:27:44.194Z,1.67
2018-10-01T08:30:14.596Z,1.83
2018-10-01T08:35:32.732Z,2.17
2018-10-01T08:38:03.084Z,1.50
2018-10-01T08:40:33.449Z,1.83
2018-10-01T08:43:22.955Z,1.67
2018-10-01T08:45:53.322Z,1.93
2018-10-01T08:48:23.722Z,2.20
2018-10-01T08:50:54.880Z,2.30
2018-10-01T08:53:25.266Z,2.47
2018-10-01T08:55:56.354Z,1.40
2018-10-01T08:58:26.781Z,1.77
2018-10-01T09:00:57.942Z,1.87
2018-10-01T09:03:28.286Z,1.53
2018-10-01T09:05:58.695Z,1.93
2018-10-01T09:08:29.136Z,2.07
2018-10-01T09:11:01.544Z,2.13
2018-10-01T09:13:51.231Z,1.40
2018-10-01T09:16:21.613Z,2.07
2018-10-01T09:18:52.011Z,1.93
2018-10-01T09:21:22.520Z,1.77
2018-10-01T09:23:52.823Z,1.63
2018-10-01T09:26:23.262Z,1.70
2018-10-01T09:28:53.630Z,1.33
2018-10-01T09:31:24.038Z,1.77
2018-10-01T09:33:55.207Z,1.67
2018-10-01T09:36:26.255Z,1.30
2018-10-01T09:38:57.873Z,2.23
2018-10-01T09:41:29.051Z,1.93
2018-10-01T09:44:00.543Z,2.10
2018-10-01T09:46:31.570Z,2.07
2018-10-01T09:49:02.673Z,2.20
2018-10-01T09:51:33.081Z,1.83
2018-10-01T09:54:04.417Z,1.90
2018-10-01T09:56:35.528Z,1.47
2018-10-01T09:59:06.619Z,1.43
2018-10-01T10:01:37.779Z,1.70
2018-10-01T10:04:08.355Z,1.93
2018-10-01T10:06:38.594Z,1.50
2018-10-01T10:09:08.984Z,2.10
2018-10-01T10:11:39.386Z,1.83
2018-10-01T10:14:09.879Z,1.73
2018-10-01T10:16:40.300Z,2.70
2018-10-01T10:19:10.542Z,4.07
2018-10-01T10:21:41.648Z,2.03
2018-10-01T10:24:12.032Z,3.10
2018-10-01T10:26:42.425Z,2.10
2018-10-01T10:29:12.814Z,2.30
2018-10-01T10:31:49.350Z,2.20
2018-10-01T10:34:19.797Z,2.33
2018-10-01T10:36:50.928Z,1.60
2018-10-01T10:39:21.253Z,1.83
2018-10-01T10:41:52.513Z,2.33
2018-10-01T10:44:44.232Z,1.52
2018-10-01T10:47:14.647Z,3.20
2018-10-01T10:49:45.796Z,2.45
2018-10-01T10:52:16.180Z,1.70
2018-10-01T10:54:46.581Z,1.90
2018-10-01T10:57:23.096Z,1.97
2018-10-01T10:59:53.497Z,1.83
2018-10-01T11:02:23.914Z,1.50
2018-10-01T11:04:54.271Z,1.90
2018-10-01T11:07:24.675Z,1.93
2018-10-01T11:09:55.054Z,1.80
2018-10-01T11:12:25.621Z,2.07
2018-10-01T11:15:02.407Z,2.17
2018-10-01T11:17:33.386Z,1.60
2018-10-01T11:20:03.775Z,1.73
2018-10-01T11:22:34.910Z,1.50
2018-10-01T11:25:05.281Z,1.83
2018-10-01T11:27:36.545Z,1.60
2018-10-01T11:30:06.823Z,2.70
2018-10-01T11:32:37.206Z,2.00
2018-10-01T11:35:07.710Z,1.43
2018-10-01T11:37:37.981Z,1.47
2018-10-01T11:40:08.548Z,1.33
2018-10-01T11:42:38.940Z,1.23
2018-10-01T11:45:12.465Z,1.30
2018-10-01T11:47:42.740Z,1.70
2018-10-01T11:50:13.128Z,1.60
2018-10-01T11:52:43.506Z,1.70
2018-10-01T11:55:14.634Z,1.73
2018-10-01T11:57:45.132Z,1.50
2018-10-01T12:00:15.526Z,1.27
2018-10-01T12:02:45.848Z,1.67
2018-10-01T12:05:35.620Z,1.60
2018-10-01T12:08:10.738Z,1.67
2018-10-01T12:10:41.149Z,1.60
2018-10-01T12:13:12.447Z,1.57
2018-10-01T12:15:42.947Z,1.53
2018-10-01T12:18:13.241Z,1.43
2018-10-01T12:20:44.406Z,1.93
2018-10-01T12:23:14.801Z,1.73
2018-10-01T12:25:45.974Z,1.53
2018-10-01T12:28:16.364Z,1.80
2018-10-01T12:30:46.743Z,1.87
2018-10-01T12:33:17.840Z,1.57
2018-10-01T12:35:50.850Z,1.37
2018-10-01T12:38:21.236Z,1.03
2018-10-01T12:40:51.664Z,1.20
2018-10-01T12:43:22.056Z,1.50
2018-10-01T12:45:52.454Z,1.37
2018-10-01T12:48:22.877Z,1.37
2018-10-01T12:50:54.027Z,1.33
2018-10-01T12:53:24.427Z,1.37
2018-10-01T12:55:54.828Z,2.03
2018-10-01T12:58:27.985Z,1.20
2018-10-01T13:00:59.775Z,1.40
2018-10-01T13:06:18.919Z,0.80
2018-10-01T13:08:50.290Z,0.80
2018-10-01T13:11:20.708Z,1.37
2018-10-01T13:13:51.200Z,1.47
2018-10-01T13:16:22.336Z,1.00
2018-10-01T13:18:52.764Z,1.17
2018-10-01T13:21:23.166Z,1.60
2018-10-01T13:23:54.632Z,1.10
2018-10-01T13:26:25.014Z,1.07
2018-10-01T13:28:55.408Z,1.00
2018-10-01T13:31:26.596Z,0.90
2018-10-01T13:33:57.010Z,1.10
2018-10-01T13:36:28.341Z,0.93
2018-10-01T13:39:00.633Z,1.07
2018-10-01T13:41:31.052Z,1.10
2018-10-01T13:44:01.389Z,1.30
2018-10-01T13:46:31.800Z,1.70
2018-10-01T13:49:02.211Z,1.40
2018-10-01T13:51:33.387Z,1.27
2018-10-01T13:54:03.850Z,1.47
2018-10-01T13:56:34.418Z,1.47
2018-10-01T13:59:04.832Z,1.00
2018-10-01T14:01:35.311Z,0.90
2018-10-01T14:04:05.658Z,1.13
2018-10-01T14:06:40.820Z,1.10
2018-10-01T14:09:11.248Z,1.50
2018-10-01T14:11:41.693Z,1.10
2018-10-01T14:14:12.053Z,1.33
2018-10-01T14:16:42.464Z,1.20
2018-10-01T14:19:12.924Z,1.40
2018-10-01T14:21:44.028Z,1.00
2018-10-01T14:24:15.185Z,1.57
2018-10-01T14:26:45.596Z,1.43
2018-10-01T14:29:15.977Z,1.40
2018-10-01T14:31:46.398Z,1.47
2018-10-01T14:34:16.807Z,1.65
2018-10-01T14:36:49.277Z,1.13
2018-10-01T14:39:26.907Z,0.70
2018-10-01T14:41:57.316Z,1.60
2018-10-01T14:44:30.100Z,1.20
2018-10-01T14:47:20.827Z,0.97
2018-10-01T14:49:51.217Z,1.70
2018-10-01T14:52:22.623Z,1.17
2018-10-01T14:54:53.820Z,1.40
2018-10-01T14:57:30.359Z,0.87
2018-10-01T15:00:01.622Z,1.60
2018-10-01T15:02:31.993Z,1.10
2018-10-01T15:05:02.307Z,1.30
2018-10-01T15:07:33.603Z,1.60
2018-10-01T15:10:04.235Z,2.70
2018-10-01T15:12:34.734Z,2.23
2018-10-01T15:15:05.814Z,1.33
2018-10-01T15:17:36.217Z,1.30
2018-10-01T15:20:07.376Z,1.30
2018-10-01T15:22:38.538Z,1.63
2018-10-01T15:25:08.935Z,1.10
2018-10-01T15:27:39.320Z,1.27
2018-10-01T15:30:09.781Z,1.33
2018-10-01T15:32:40.048Z,1.00
2018-10-01T15:35:10.386Z,1.20
2018-10-01T15:37:40.777Z,1.37
2018-10-01T15:40:11.157Z,1.13
2018-10-01T15:42:41.542Z,1.30
2018-10-01T15:45:11.938Z,1.57
2018-10-01T15:47:43.023Z,1.90
2018-10-01T15:50:13.353Z,2.10
2018-10-01T15:52:49.904Z,2.50
2018-10-01T15:55:20.304Z,1.83
2018-10-01T15:57:51.856Z,1.13
2018-10-01T16:00:22.195Z,0.97
2018-10-01T16:02:53.339Z,1.30
2018-10-01T16:05:24.486Z,1.30
2018-10-01T16:07:54.870Z,1.00
2018-10-01T16:10:25.251Z,2.28
2018-10-01T16:12:55.654Z,1.60
2018-10-01T16:15:28.755Z,2.37
2018-10-01T16:17:59.945Z,0.93
2018-10-01T16:20:30.300Z,1.30
2018-10-01T16:23:00.815Z,1.57
2018-10-01T16:25:33.255Z,1.10
2018-10-01T16:28:03.639Z,1.37
2018-10-01T16:30:35.473Z,1.10
2018-10-01T16:35:52.609Z,1.47
2018-10-01T16:38:23.947Z,1.30
2018-10-01T16:41:00.203Z,1.57
2018-10-01T16:43:33.447Z,2.10
2018-10-01T16:46:06.490Z,1.83
2018-10-01T16:48:36.881Z,1.43
2018-10-01T16:51:32.479Z,1.90
2018-10-01T16:54:03.999Z,1.83
2018-10-01T16:56:47.086Z,1.77
2018-10-01T16:59:17.662Z,1.93
2018-10-01T17:01:50.210Z,1.83
2018-10-01T17:04:23.485Z,1.17
2018-10-01T17:06:59.565Z,1.90
2018-10-01T17:09:32.431Z,1.10
2018-10-01T17:12:02.894Z,1.67
2018-10-01T17:14:33.211Z,1.30
2018-10-01T17:17:03.540Z,1.83
2018-10-01T17:19:36.615Z,1.50
2018-10-01T17:22:10.392Z,3.50
2018-10-01T17:24:41.554Z,2.00
2018-10-01T17:27:15.783Z,2.23
2018-10-01T17:29:49.549Z,1.73
2018-10-01T17:32:22.012Z,2.70
2018-10-01T17:34:52.390Z,1.83
2018-10-01T17:37:25.415Z,2.57
2018-10-01T17:39:56.644Z,1.30
2018-10-01T17:42:33.173Z,2.27
2018-10-01T17:45:07.294Z,1.80
2018-10-01T17:47:37.872Z,2.30
2018-10-01T17:50:30.497Z,1.67
2018-10-01T17:53:01.007Z,2.07
2018-10-01T17:55:32.058Z,2.93
2018-10-01T17:58:08.398Z,1.87
2018-10-01T18:00:38.718Z,2.10
2018-10-01T18:03:09.103Z,2.13
2018-10-01T18:06:01.801Z,2.63
2018-10-01T18:08:32.763Z,1.80
2018-10-01T18:11:03.153Z,1.87
2018-10-01T18:13:36.255Z,2.13
2018-10-01T18:16:07.415Z,2.47
2018-10-01T18:18:37.806Z,1.70
2018-10-01T18:21:10.844Z,1.67
2018-10-01T18:23:41.230Z,1.80
2018-10-01T18:26:11.675Z,2.00
2018-10-01T18:28:47.505Z,2.30
2018-10-01T18:31:17.904Z,1.60
2018-10-01T18:34:13.817Z,2.20
2018-10-01T18:39:34.023Z,2.27
2018-10-01T18:42:04.532Z,2.50
2018-10-01T18:44:34.959Z,2.40
2018-10-01T18:47:06.130Z,2.27
2018-10-01T18:49:50.336Z,2.43
2018-10-01T18:52:30.350Z,2.27
2018-10-01T18:55:19.883Z,2.10
2018-10-01T18:57:50.250Z,1.87
2018-10-01T19:00:45.846Z,2.40
2018-10-01T19:03:16.292Z,1.77
2018-10-01T19:05:47.505Z,1.87
2018-10-01T19:08:25.540Z,2.77
2018-10-01T19:11:10.183Z,2.17
2018-10-01T19:13:40.520Z,2.07
2018-10-01T19:16:17.849Z,2.40
2018-10-01T19:18:48.287Z,2.17
2018-10-01T19:21:18.788Z,1.63
2018-10-01T19:23:49.882Z,2.20
2018-10-01T19:26:22.986Z,2.47
2018-10-01T19:28:53.408Z,2.77
2018-10-01T19:31:26.735Z,2.50
2018-10-01T19:33:59.613Z,3.17
2018-10-01T19:36:54.084Z,2.47
2018-10-01T19:39:24.563Z,2.10
2018-10-01T19:41:54.883Z,2.37
2018-10-01T19:44:25.276Z,2.33
2018-10-01T19:47:00.890Z,2.53
2018-10-01T19:49:31.209Z,2.90
2018-10-01T19:52:02.289Z,3.20
2018-10-01T19:54:32.697Z,3.10
2018-10-01T19:57:03.118Z,3.00
2018-10-01T19:59:33.477Z,3.57
2018-10-01T20:02:06.160Z,2.80
2018-10-01T20:04:36.522Z,2.83
2018-10-01T20:07:06.925Z,3.20
2018-10-01T20:09:37.516Z,3.07
2018-10-01T20:12:07.952Z,2.63
2018-10-01T20:14:38.352Z,2.53
2018-10-01T20:17:09.483Z,2.20
2018-10-01T20:19:39.865Z,2.23
2018-10-01T20:22:17.624Z,1.73
2018-10-01T20:24:48.091Z,2.90
2018-10-01T20:27:25.577Z,2.70
2018-10-01T20:29:56.897Z,1.73
2018-10-01T20:32:27.418Z,2.30
2018-10-01T20:34:57.779Z,2.10
2018-10-01T20:37:28.089Z,1.87
2018-10-01T20:39:58.466Z,1.67
2018-10-01T20:42:31.728Z,1.97
2018-10-01T20:45:05.174Z,1.30
2018-10-01T20:47:35.567Z,1.53
2018-10-01T20:50:06.141Z,1.60
2018-10-01T20:52:36.472Z,1.60
2018-10-01T20:55:07.495Z,1.60
2018-10-01T20:57:37.835Z,1.60
2018-10-01T21:00:08.920Z,2.37
2018-10-01T21:02:44.435Z,2.23
2018-10-01T21:05:15.630Z,2.40
2018-10-01T21:07:46.028Z,2.70
2018-10-01T21:10:17.105Z,3.17
2018-10-01T21:12:50.092Z,2.70
2018-10-01T21:15:20.483Z,3.67
2018-10-01T21:17:50.880Z,3.80
2018-10-01T21:20:21.458Z,3.37
2018-10-01T21:23:11.988Z,3.83
2018-10-01T21:25:42.389Z,3.20
2018-10-01T21:28:13.792Z,2.10
2018-10-01T21:30:44.963Z,2.57
2018-10-01T21:33:15.347Z,2.30
2018-10-01T21:35:45.670Z,1.83
2018-10-01T21:38:16.056Z,2.00
2018-10-01T21:40:53.745Z,2.07
2018-10-01T21:43:24.144Z,1.50
2018-10-01T21:45:55.288Z,1.93
2018-10-01T21:48:25.680Z,1.63
2018-10-01T21:50:56.079Z,1.60
2018-10-01T21:53:45.848Z,2.60
2018-10-01T21:56:17.685Z,3.57
2018-10-01T21:58:48.841Z,4.83
2018-10-01T22:01:19.244Z,4.67
2018-10-01T22:03:50.410Z,3.37
2018-10-01T22:06:20.739Z,2.13
2018-10-01T22:08:51.126Z,2.17
2018-10-01T22:11:21.470Z,2.03
2018-10-01T22:13:52.626Z,2.00
2018-10-01T22:16:23.025Z,2.07
2018-10-01T22:18:53.432Z,1.97
2018-10-01T22:21:24.496Z,2.13
2018-10-01T22:23:54.881Z,1.73
2018-10-01T22:26:45.422Z,1.97
2018-10-01T22:29:15.799Z,2.13
2018-10-01T22:31:52.327Z,1.67
2018-10-01T22:34:23.482Z,2.10
2018-10-01T22:36:54.630Z,1.83
2018-10-01T22:39:25.024Z,2.17
2018-10-01T22:41:55.397Z,2.33
2018-10-01T22:44:25.782Z,3.70
2018-10-01T22:46:56.187Z,3.60
2018-10-01T22:49:26.637Z,3.70
2018-10-01T22:51:56.967Z,3.77
2018-10-01T22:54:27.303Z,3.73
2018-10-01T22:56:57.691Z,3.53
2018-10-01T23:02:12.105Z,3.17
2018-10-01T23:04:42.491Z,3.00
2018-10-01T23:07:13.913Z,3.00
2018-10-01T23:09:44.308Z,2.80
2018-10-01T23:12:15.392Z,2.20
2018-10-01T23:14:51.953Z,2.47
2018-10-01T23:17:22.345Z,2.80
2018-10-01T23:19:53.506Z,2.60
2018-10-01T23:22:25.086Z,2.53
2018-10-01T23:24:59.245Z,2.43
2018-10-01T23:27:29.580Z,2.67
2018-10-01T23:29:59.997Z,2.50
2018-10-01T23:32:30.330Z,2.33
2018-10-01T23:35:00.722Z,1.90
2018-10-01T23:37:50.493Z,2.23
2018-10-01T23:40:41.268Z,2.17
2018-10-01T23:43:11.674Z,1.83
2018-10-01T23:45:42.760Z,1.57
2018-10-01T23:48:18.290Z,1.70
2018-10-01T23:50:48.692Z,1.63
2018-10-01T23:53:19.084Z,1.90
2018-10-01T23:55:49.481Z,2.13
2018-10-01T23:58:19.872Z,2.10
